sensor_id;sensor_type;location;lat;lon;timestamp;temperature;humidity
28532;DHT22;15738;44.860;10.066;2023-04-03T00:00:33;11.70;99.90
28532;DHT22;15738;44.860;10.066;2023-04-03T00:03:19;11.70;99.90
28532;DHT22;15738;44.860;10.066;2023-04-03T00:06:05;11.70;99.90
28532;DHT22;15738;44.860;10.066;2023-04-03T00:08:52;11.70;99.90
28532;DHT22;15738;44.860;10.066;2023-04-03T00:11:38;11.60;99.90
28532;DHT22;15738;44.860;10.066;2023-04-03T00:14:24;11.50;99.90
28532;DHT22;15738;44.860;10.066;2023-04-03T00:17:09;11.60;99.90
28532;DHT22;15738;44.860;10.066;2023-04-03T00:19:55;11.50;99.90
28532;DHT22;15738;44.860;10.066;2023-04-03T00:22:41;11.50;99.90
28532;DHT22;15738;44.860;10.066;2023-04-03T00:25:27;11.40;99.90
28532;DHT22;15738;44.860;10.066;2023-04-03T00:28:12;11.40;99.90
28532;DHT22;15738;44.860;10.066;2023-04-03T00:30:58;11.40;99.90
28532;DHT22;15738;44.860;10.066;2023-04-03T00:33:44;11.40;99.90
28532;DHT22;15738;44.860;10.066;2023-04-03T00:36:29;11.40;99.90
28532;DHT22;15738;44.860;10.066;2023-04-03T00:39:15;11.30;99.90
28532;DHT22;15738;44.860;10.066;2023-04-03T00:42:01;11.30;99.90
28532;DHT22;15738;44.860;10.066;2023-04-03T00:47:33;11.30;99.90
28532;DHT22;15738;44.860;10.066;2023-04-03T00:50:19;11.30;99.90
28532;DHT22;15738;44.860;10.066;2023-04-03T00:53:05;11.20;99.90
28532;DHT22;15738;44.860;10.066;2023-04-03T00:55:51;11.20;99.90
28532;DHT22;15738;44.860;10.066;2023-04-03T00:58:40;11.20;99.90
28532;DHT22;15738;44.860;10.066;2023-04-03T01:01:27;11.10;99.90
28532;DHT22;15738;44.860;10.066;2023-04-03T01:07:17;11.10;99.90
28532;DHT22;15738;44.860;10.066;2023-04-03T01:10:05;11.10;99.90
28532;DHT22;15738;44.860;10.066;2023-04-03T01:12:52;11.10;99.90
28532;DHT22;15738;44.860;10.066;2023-04-03T01:15:37;11.00;99.90
28532;DHT22;15738;44.860;10.066;2023-04-03T01:18:23;11.00;99.90
28532;DHT22;15738;44.860;10.066;2023-04-03T01:27:06;10.90;99.90
28532;DHT22;15738;44.860;10.066;2023-04-03T01:29:53;10.90;99.90
28532;DHT22;15738;44.860;10.066;2023-04-03T01:32:39;10.90;99.90
28532;DHT22;15738;44.860;10.066;2023-04-03T01:35:24;10.80;99.90
28532;DHT22;15738;44.860;10.066;2023-04-03T01:38:10;10.80;99.90
28532;DHT22;15738;44.860;10.066;2023-04-03T01:40:56;10.70;99.90
28532;DHT22;15738;44.860;10.066;2023-04-03T01:43:42;10.70;99.90
28532;DHT22;15738;44.860;10.066;2023-04-03T01:46:28;10.70;99.90
28532;DHT22;15738;44.860;10.066;2023-04-03T01:49:14;10.70;99.90
28532;DHT22;15738;44.860;10.066;2023-04-03T01:52:00;10.60;99.90
28532;DHT22;15738;44.860;10.066;2023-04-03T01:54:45;10.60;99.90
28532;DHT22;15738;44.860;10.066;2023-04-03T01:57:31;10.60;99.90
28532;DHT22;15738;44.860;10.066;2023-04-03T02:00:17;10.50;99.90
28532;DHT22;15738;44.860;10.066;2023-04-03T02:03:02;10.60;99.90
28532;DHT22;15738;44.860;10.066;2023-04-03T02:05:49;10.60;99.90
28532;DHT22;15738;44.860;10.066;2023-04-03T02:08:34;10.60;99.90
28532;DHT22;15738;44.860;10.066;2023-04-03T02:11:20;10.60;99.90
28532;DHT22;15738;44.860;10.066;2023-04-03T02:14:06;10.70;99.90
28532;DHT22;15738;44.860;10.066;2023-04-03T02:16:52;10.70;99.90
28532;DHT22;15738;44.860;10.066;2023-04-03T02:19:40;10.60;99.90
28532;DHT22;15738;44.860;10.066;2023-04-03T02:22:26;10.50;99.90
28532;DHT22;15738;44.860;10.066;2023-04-03T02:25:11;10.50;99.90
28532;DHT22;15738;44.860;10.066;2023-04-03T02:27:58;10.50;99.90
28532;DHT22;15738;44.860;10.066;2023-04-03T02:30:44;10.40;99.90
28532;DHT22;15738;44.860;10.066;2023-04-03T02:33:31;10.40;99.90
28532;DHT22;15738;44.860;10.066;2023-04-03T02:36:17;10.40;99.90
28532;DHT22;15738;44.860;10.066;2023-04-03T02:39:09;10.40;99.90
28532;DHT22;15738;44.860;10.066;2023-04-03T02:41:55;10.40;99.90
28532;DHT22;15738;44.860;10.066;2023-04-03T02:44:42;10.40;99.90
28532;DHT22;15738;44.860;10.066;2023-04-03T02:47:28;10.30;99.90
28532;DHT22;15738;44.860;10.066;2023-04-03T02:50:13;10.30;99.90
28532;DHT22;15738;44.860;10.066;2023-04-03T02:53:00;10.40;99.90
28532;DHT22;15738;44.860;10.066;2023-04-03T02:55:46;10.30;99.90
28532;DHT22;15738;44.860;10.066;2023-04-03T02:58:32;10.30;99.90
28532;DHT22;15738;44.860;10.066;2023-04-03T03:01:19;10.30;99.90
28532;DHT22;15738;44.860;10.066;2023-04-03T03:04:05;10.30;99.90
28532;DHT22;15738;44.860;10.066;2023-04-03T03:06:50;10.20;99.90
28532;DHT22;15738;44.860;10.066;2023-04-03T03:09:36;10.20;99.90
28532;DHT22;15738;44.860;10.066;2023-04-03T03:12:22;10.20;99.90
28532;DHT22;15738;44.860;10.066;2023-04-03T03:15:10;10.10;99.90
28532;DHT22;15738;44.860;10.066;2023-04-03T03:17:56;10.10;99.90
28532;DHT22;15738;44.860;10.066;2023-04-03T03:20:41;10.00;99.90
28532;DHT22;15738;44.860;10.066;2023-04-03T03:23:28;10.00;99.90
28532;DHT22;15738;44.860;10.066;2023-04-03T03:26:13;9.90;99.90
28532;DHT22;15738;44.860;10.066;2023-04-03T03:28:59;9.90;99.90
28532;DHT22;15738;44.860;10.066;2023-04-03T03:31:45;9.90;99.90
28532;DHT22;15738;44.860;10.066;2023-04-03T03:34:31;9.90;99.90
28532;DHT22;15738;44.860;10.066;2023-04-03T03:37:17;9.90;99.90
28532;DHT22;15738;44.860;10.066;2023-04-03T03:40:03;9.80;99.90
28532;DHT22;15738;44.860;10.066;2023-04-03T03:42:49;9.80;99.90
28532;DHT22;15738;44.860;10.066;2023-04-03T03:45:36;9.70;99.90
28532;DHT22;15738;44.860;10.066;2023-04-03T03:48:22;9.80;99.90
28532;DHT22;15738;44.860;10.066;2023-04-03T03:51:08;9.70;99.90
28532;DHT22;15738;44.860;10.066;2023-04-03T03:53:56;9.70;99.90
28532;DHT22;15738;44.860;10.066;2023-04-03T03:56:42;9.70;99.90
28532;DHT22;15738;44.860;10.066;2023-04-03T03:59:27;9.70;99.90
28532;DHT22;15738;44.860;10.066;2023-04-03T04:02:13;9.70;99.90
28532;DHT22;15738;44.860;10.066;2023-04-03T04:05:00;9.60;99.90
28532;DHT22;15738;44.860;10.066;2023-04-03T04:07:45;9.50;99.90
28532;DHT22;15738;44.860;10.066;2023-04-03T04:10:32;9.50;99.90
28532;DHT22;15738;44.860;10.066;2023-04-03T04:13:18;9.50;99.90
28532;DHT22;15738;44.860;10.066;2023-04-03T04:16:04;9.60;99.90
28532;DHT22;15738;44.860;10.066;2023-04-03T04:18:51;9.60;99.90
28532;DHT22;15738;44.860;10.066;2023-04-03T04:21:38;9.60;99.90
28532;DHT22;15738;44.860;10.066;2023-04-03T04:24:25;9.60;99.90
28532;DHT22;15738;44.860;10.066;2023-04-03T04:27:13;9.70;99.90
28532;DHT22;15738;44.860;10.066;2023-04-03T04:29:59;9.70;99.90
28532;DHT22;15738;44.860;10.066;2023-04-03T04:32:45;9.70;99.90
28532;DHT22;15738;44.860;10.066;2023-04-03T04:35:32;9.70;99.90
28532;DHT22;15738;44.860;10.066;2023-04-03T04:38:19;9.70;99.90
28532;DHT22;15738;44.860;10.066;2023-04-03T04:41:05;9.70;99.90
28532;DHT22;15738;44.860;10.066;2023-04-03T04:43:51;9.70;99.90
28532;DHT22;15738;44.860;10.066;2023-04-03T04:46:38;9.70;99.90
28532;DHT22;15738;44.860;10.066;2023-04-03T04:49:25;9.70;99.90
28532;DHT22;15738;44.860;10.066;2023-04-03T04:52:11;9.70;99.90
28532;DHT22;15738;44.860;10.066;2023-04-03T04:54:58;9.70;99.90
28532;DHT22;15738;44.860;10.066;2023-04-03T04:57:45;9.70;99.90
28532;DHT22;15738;44.860;10.066;2023-04-03T05:00:34;9.70;99.90
28532;DHT22;15738;44.860;10.066;2023-04-03T05:03:20;9.60;99.90
28532;DHT22;15738;44.860;10.066;2023-04-03T05:06:06;9.60;99.90
28532;DHT22;15738;44.860;10.066;2023-04-03T05:08:53;9.60;99.90
28532;DHT22;15738;44.860;10.066;2023-04-03T05:11:40;9.60;99.90
28532;DHT22;15738;44.860;10.066;2023-04-03T05:14:26;9.60;99.90
28532;DHT22;15738;44.860;10.066;2023-04-03T05:17:17;9.60;99.90
28532;DHT22;15738;44.860;10.066;2023-04-03T05:20:07;9.60;99.90
28532;DHT22;15738;44.860;10.066;2023-04-03T05:22:54;9.60;99.90
28532;DHT22;15738;44.860;10.066;2023-04-03T05:25:40;9.70;99.90
28532;DHT22;15738;44.860;10.066;2023-04-03T05:28:27;9.70;99.90
28532;DHT22;15738;44.860;10.066;2023-04-03T05:31:12;9.80;99.90
28532;DHT22;15738;44.860;10.066;2023-04-03T05:33:59;9.90;99.90
28532;DHT22;15738;44.860;10.066;2023-04-03T05:36:47;10.00;99.90
28532;DHT22;15738;44.860;10.066;2023-04-03T05:39:34;10.40;99.90
28532;DHT22;15738;44.860;10.066;2023-04-03T05:42:21;10.70;99.90
28532;DHT22;15738;44.860;10.066;2023-04-03T05:45:07;10.80;99.90
28532;DHT22;15738;44.860;10.066;2023-04-03T05:47:54;10.90;99.90
28532;DHT22;15738;44.860;10.066;2023-04-03T05:50:41;11.00;99.90
28532;DHT22;15738;44.860;10.066;2023-04-03T05:53:31;11.40;99.90
28532;DHT22;15738;44.860;10.066;2023-04-03T05:56:21;12.00;99.90
28532;DHT22;15738;44.860;10.066;2023-04-03T05:59:06;12.30;99.90
28532;DHT22;15738;44.860;10.066;2023-04-03T06:01:53;12.60;99.90
28532;DHT22;15738;44.860;10.066;2023-04-03T06:04:39;12.90;99.90
28532;DHT22;15738;44.860;10.066;2023-04-03T06:07:25;13.50;99.90
28532;DHT22;15738;44.860;10.066;2023-04-03T06:10:13;14.70;99.90
28532;DHT22;15738;44.860;10.066;2023-04-03T06:12:58;14.70;99.90
28532;DHT22;15738;44.860;10.066;2023-04-03T06:15:44;15.40;99.90
28532;DHT22;15738;44.860;10.066;2023-04-03T06:18:30;16.30;99.90
28532;DHT22;15738;44.860;10.066;2023-04-03T06:21:16;17.00;99.90
28532;DHT22;15738;44.860;10.066;2023-04-03T06:24:15;17.40;99.90
28532;DHT22;15738;44.860;10.066;2023-04-03T06:27:02;17.30;99.90
28532;DHT22;15738;44.860;10.066;2023-04-03T06:29:47;17.20;99.90
28532;DHT22;15738;44.860;10.066;2023-04-03T06:32:34;17.00;99.90
28532;DHT22;15738;44.860;10.066;2023-04-03T06:35:20;16.80;99.90
28532;DHT22;15738;44.860;10.066;2023-04-03T06:38:11;16.80;99.90
28532;DHT22;15738;44.860;10.066;2023-04-03T06:40:59;16.80;99.90
28532;DHT22;15738;44.860;10.066;2023-04-03T06:43:45;16.80;99.90
28532;DHT22;15738;44.860;10.066;2023-04-03T06:46:31;16.90;99.90
28532;DHT22;15738;44.860;10.066;2023-04-03T06:49:24;16.90;99.90
28532;DHT22;15738;44.860;10.066;2023-04-03T06:52:10;17.00;99.90
28532;DHT22;15738;44.860;10.066;2023-04-03T06:54:58;16.80;99.90
28532;DHT22;15738;44.860;10.066;2023-04-03T06:57:45;17.10;99.90
28532;DHT22;15738;44.860;10.066;2023-04-03T07:00:31;17.30;99.90
28532;DHT22;15738;44.860;10.066;2023-04-03T07:03:16;17.30;99.90
28532;DHT22;15738;44.860;10.066;2023-04-03T07:06:03;17.20;99.90
28532;DHT22;15738;44.860;10.066;2023-04-03T07:08:49;17.10;99.90
28532;DHT22;15738;44.860;10.066;2023-04-03T07:11:34;17.10;99.90
28532;DHT22;15738;44.860;10.066;2023-04-03T07:14:21;17.20;99.90
28532;DHT22;15738;44.860;10.066;2023-04-03T07:17:10;17.00;99.90
28532;DHT22;15738;44.860;10.066;2023-04-03T07:19:57;16.90;99.90
28532;DHT22;15738;44.860;10.066;2023-04-03T07:22:43;16.80;99.90
28532;DHT22;15738;44.860;10.066;2023-04-03T07:28:21;17.20;99.90
28532;DHT22;15738;44.860;10.066;2023-04-03T07:31:11;17.30;99.90
28532;DHT22;15738;44.860;10.066;2023-04-03T07:33:58;17.50;99.90
28532;DHT22;15738;44.860;10.066;2023-04-03T07:39:30;16.60;99.90
28532;DHT22;15738;44.860;10.066;2023-04-03T07:42:16;16.30;99.90
28532;DHT22;15738;44.860;10.066;2023-04-03T07:45:02;16.40;99.90
28532;DHT22;15738;44.860;10.066;2023-04-03T07:47:48;16.70;99.90
28532;DHT22;15738;44.860;10.066;2023-04-03T07:50:33;16.80;99.90
28532;DHT22;15738;44.860;10.066;2023-04-03T07:53:19;16.80;99.90
28532;DHT22;15738;44.860;10.066;2023-04-03T07:56:05;16.80;99.90
28532;DHT22;15738;44.860;10.066;2023-04-03T07:58:51;17.10;99.90
28532;DHT22;15738;44.860;10.066;2023-04-03T08:01:36;17.10;99.90
28532;DHT22;15738;44.860;10.066;2023-04-03T08:07:08;17.00;99.90
28532;DHT22;15738;44.860;10.066;2023-04-03T08:09:54;17.20;99.90
28532;DHT22;15738;44.860;10.066;2023-04-03T08:12:39;17.50;99.90
28532;DHT22;15738;44.860;10.066;2023-04-03T08:15:25;17.60;99.90
28532;DHT22;15738;44.860;10.066;2023-04-03T08:18:12;17.90;99.90
28532;DHT22;15738;44.860;10.066;2023-04-03T08:20:58;17.30;99.90
28532;DHT22;15738;44.860;10.066;2023-04-03T08:23:43;17.60;99.90
28532;DHT22;15738;44.860;10.066;2023-04-03T08:26:29;17.60;99.90
28532;DHT22;15738;44.860;10.066;2023-04-03T08:29:15;17.30;99.90
28532;DHT22;15738;44.860;10.066;2023-04-03T08:32:01;16.90;99.90
28532;DHT22;15738;44.860;10.066;2023-04-03T08:34:47;17.10;99.90
28532;DHT22;15738;44.860;10.066;2023-04-03T08:37:34;16.90;99.90
28532;DHT22;15738;44.860;10.066;2023-04-03T08:40:20;17.20;99.90
28532;DHT22;15738;44.860;10.066;2023-04-03T08:45:52;16.80;99.90
28532;DHT22;15738;44.860;10.066;2023-04-03T08:51:30;17.40;99.90
28532;DHT22;15738;44.860;10.066;2023-04-03T08:57:04;17.20;99.90
28532;DHT22;15738;44.860;10.066;2023-04-03T08:59:51;17.30;99.90
28532;DHT22;15738;44.860;10.066;2023-04-03T09:02:47;17.50;99.90
28532;DHT22;15738;44.860;10.066;2023-04-03T09:16:58;17.90;99.90
28532;DHT22;15738;44.860;10.066;2023-04-03T09:19:56;17.90;99.90
28532;DHT22;15738;44.860;10.066;2023-04-03T09:22:43;18.10;99.90
28532;DHT22;15738;44.860;10.066;2023-04-03T09:25:36;17.60;99.90
28532;DHT22;15738;44.860;10.066;2023-04-03T09:28:22;17.50;99.90
28532;DHT22;15738;44.860;10.066;2023-04-03T09:31:22;17.80;99.90
28532;DHT22;15738;44.860;10.066;2023-04-03T09:37:32;18.00;99.90
28532;DHT22;15738;44.860;10.066;2023-04-03T09:48:49;17.90;99.90
28532;DHT22;15738;44.860;10.066;2023-04-03T09:51:45;18.10;99.90
28532;DHT22;15738;44.860;10.066;2023-04-03T09:54:32;18.40;99.90
28532;DHT22;15738;44.860;10.066;2023-04-03T09:57:19;18.30;99.90
28532;DHT22;15738;44.860;10.066;2023-04-03T10:00:04;18.00;99.90
28532;DHT22;15738;44.860;10.066;2023-04-03T10:02:54;17.30;99.90
28532;DHT22;15738;44.860;10.066;2023-04-03T10:05:41;17.20;99.90
28532;DHT22;15738;44.860;10.066;2023-04-03T10:08:36;17.30;99.90
28532;DHT22;15738;44.860;10.066;2023-04-03T10:11:21;17.60;99.90
28532;DHT22;15738;44.860;10.066;2023-04-03T10:14:15;18.00;99.90
28532;DHT22;15738;44.860;10.066;2023-04-03T10:17:32;18.30;99.90
28532;DHT22;15738;44.860;10.066;2023-04-03T10:20:35;18.20;99.90
28532;DHT22;15738;44.860;10.066;2023-04-03T10:35:02;17.50;99.90
28532;DHT22;15738;44.860;10.066;2023-04-03T10:38:04;17.60;99.90
28532;DHT22;15738;44.860;10.066;2023-04-03T10:47:02;17.20;99.90
28532;DHT22;15738;44.860;10.066;2023-04-03T10:52:50;17.50;99.90
28532;DHT22;15738;44.860;10.066;2023-04-03T10:55:41;20.10;99.90
28532;DHT22;15738;44.860;10.066;2023-04-03T10:58:30;16.90;99.90
28532;DHT22;15738;44.860;10.066;2023-04-03T11:01:23;16.90;99.90
28532;DHT22;15738;44.860;10.066;2023-04-03T11:04:12;17.20;99.90
28532;DHT22;15738;44.860;10.066;2023-04-03T11:10:02;17.30;99.90
28532;DHT22;15738;44.860;10.066;2023-04-03T11:12:50;17.30;99.90
28532;DHT22;15738;44.860;10.066;2023-04-03T11:15:36;17.40;99.90
28532;DHT22;15738;44.860;10.066;2023-04-03T11:24:31;17.80;99.90
28532;DHT22;15738;44.860;10.066;2023-04-03T11:27:19;17.80;99.90
28532;DHT22;15738;44.860;10.066;2023-04-03T11:30:09;17.50;99.90
28532;DHT22;15738;44.860;10.066;2023-04-03T11:36:06;17.90;99.90
28532;DHT22;15738;44.860;10.066;2023-04-03T11:54:35;17.40;99.90
28532;DHT22;15738;44.860;10.066;2023-04-03T12:08:58;17.10;99.90
28532;DHT22;15738;44.860;10.066;2023-04-03T12:11:44;17.20;99.90
28532;DHT22;15738;44.860;10.066;2023-04-03T12:14:32;17.30;99.90
28532;DHT22;15738;44.860;10.066;2023-04-03T12:17:25;17.10;99.90
28532;DHT22;15738;44.860;10.066;2023-04-03T12:23:24;17.00;99.90
28532;DHT22;15738;44.860;10.066;2023-04-03T12:26:21;16.90;99.90
28532;DHT22;15738;44.860;10.066;2023-04-03T12:29:33;16.90;99.90
28532;DHT22;15738;44.860;10.066;2023-04-03T12:35:29;17.20;99.90
28532;DHT22;15738;44.860;10.066;2023-04-03T12:41:30;17.40;99.90
28532;DHT22;15738;44.860;10.066;2023-04-03T12:47:29;17.40;99.90
28532;DHT22;15738;44.860;10.066;2023-04-03T12:50:25;17.40;99.90
28532;DHT22;15738;44.860;10.066;2023-04-03T12:56:19;16.90;99.90
28532;DHT22;15738;44.860;10.066;2023-04-03T12:59:27;17.10;99.90
28532;DHT22;15738;44.860;10.066;2023-04-03T13:02:17;17.10;99.90
28532;DHT22;15738;44.860;10.066;2023-04-03T13:05:06;17.30;99.90
28532;DHT22;15738;44.860;10.066;2023-04-03T13:07:54;17.50;99.90
28532;DHT22;15738;44.860;10.066;2023-04-03T13:10:49;17.40;99.90
28532;DHT22;15738;44.860;10.066;2023-04-03T13:13:35;17.20;99.90
28532;DHT22;15738;44.860;10.066;2023-04-03T13:16:22;17.20;99.90
28532;DHT22;15738;44.860;10.066;2023-04-03T13:19:15;17.00;99.90
28532;DHT22;15738;44.860;10.066;2023-04-03T13:22:06;17.00;99.90
28532;DHT22;15738;44.860;10.066;2023-04-03T13:28:12;16.90;99.90
28532;DHT22;15738;44.860;10.066;2023-04-03T13:31:15;16.90;99.90
28532;DHT22;15738;44.860;10.066;2023-04-03T13:34:11;17.00;99.90
28532;DHT22;15738;44.860;10.066;2023-04-03T13:36:58;16.80;99.90
28532;DHT22;15738;44.860;10.066;2023-04-03T13:40:04;17.00;99.90
28532;DHT22;15738;44.860;10.066;2023-04-03T13:43:04;16.90;99.90
28532;DHT22;15738;44.860;10.066;2023-04-03T13:46:03;17.00;99.90
28532;DHT22;15738;44.860;10.066;2023-04-03T13:48:53;16.80;99.90
28532;DHT22;15738;44.860;10.066;2023-04-03T13:51:39;17.00;99.90
28532;DHT22;15738;44.860;10.066;2023-04-03T13:54:30;17.20;99.90
28532;DHT22;15738;44.860;10.066;2023-04-03T13:57:16;17.00;99.90
28532;DHT22;15738;44.860;10.066;2023-04-03T14:00:21;17.00;99.90
28532;DHT22;15738;44.860;10.066;2023-04-03T14:03:22;17.10;99.90
28532;DHT22;15738;44.860;10.066;2023-04-03T14:06:10;17.40;99.90
28532;DHT22;15738;44.860;10.066;2023-04-03T14:08:56;17.40;99.90
28532;DHT22;15738;44.860;10.066;2023-04-03T14:11:42;17.50;99.90
28532;DHT22;15738;44.860;10.066;2023-04-03T14:14:29;17.70;99.90
28532;DHT22;15738;44.860;10.066;2023-04-03T14:17:17;17.60;99.90
28532;DHT22;15738;44.860;10.066;2023-04-03T14:20:13;17.50;99.90
28532;DHT22;15738;44.860;10.066;2023-04-03T14:22:59;17.40;99.90
28532;DHT22;15738;44.860;10.066;2023-04-03T14:25:45;17.10;99.90
28532;DHT22;15738;44.860;10.066;2023-04-03T14:31:39;17.20;99.90
28532;DHT22;15738;44.860;10.066;2023-04-03T14:34:32;16.70;99.90
28532;DHT22;15738;44.860;10.066;2023-04-03T14:37:28;16.60;99.90
28532;DHT22;15738;44.860;10.066;2023-04-03T14:40:16;16.40;99.90
28532;DHT22;15738;44.860;10.066;2023-04-03T14:43:02;16.40;99.90
28532;DHT22;15738;44.860;10.066;2023-04-03T14:45:49;16.40;99.90
28532;DHT22;15738;44.860;10.066;2023-04-03T14:48:35;16.70;99.90
28532;DHT22;15738;44.860;10.066;2023-04-03T14:51:21;16.50;99.90
28532;DHT22;15738;44.860;10.066;2023-04-03T14:54:11;16.70;99.90
28532;DHT22;15738;44.860;10.066;2023-04-03T14:56:58;16.80;99.90
28532;DHT22;15738;44.860;10.066;2023-04-03T14:59:45;16.90;99.90
28532;DHT22;15738;44.860;10.066;2023-04-03T15:02:37;16.90;99.90
28532;DHT22;15738;44.860;10.066;2023-04-03T15:05:23;16.60;99.90
28532;DHT22;15738;44.860;10.066;2023-04-03T15:08:17;16.70;99.90
28532;DHT22;15738;44.860;10.066;2023-04-03T15:11:04;16.70;99.90
28532;DHT22;15738;44.860;10.066;2023-04-03T15:13:50;16.70;99.90
28532;DHT22;15738;44.860;10.066;2023-04-03T15:16:36;16.60;99.90
28532;DHT22;15738;44.860;10.066;2023-04-03T15:19:23;16.40;99.90
28532;DHT22;15738;44.860;10.066;2023-04-03T15:22:15;16.30;99.90
28532;DHT22;15738;44.860;10.066;2023-04-03T15:25:02;16.10;99.90
28532;DHT22;15738;44.860;10.066;2023-04-03T15:27:48;16.30;99.90
28532;DHT22;15738;44.860;10.066;2023-04-03T15:30:34;16.30;99.90
28532;DHT22;15738;44.860;10.066;2023-04-03T15:37:49;16.60;99.90
28532;DHT22;15738;44.860;10.066;2023-04-03T15:40:40;19.30;99.90
28532;DHT22;15738;44.860;10.066;2023-04-03T15:43:26;16.40;99.90
28532;DHT22;15738;44.860;10.066;2023-04-03T15:46:13;16.40;99.90
28532;DHT22;15738;44.860;10.066;2023-04-03T15:52:11;15.80;99.90
28532;DHT22;15738;44.860;10.066;2023-04-03T15:55:00;16.40;99.90
28532;DHT22;15738;44.860;10.066;2023-04-03T15:57:48;16.00;99.90
28532;DHT22;15738;44.860;10.066;2023-04-03T16:03:41;16.70;99.90
28532;DHT22;15738;44.860;10.066;2023-04-03T16:06:31;15.80;99.90
28532;DHT22;15738;44.860;10.066;2023-04-03T16:09:18;15.60;99.90
28532;DHT22;15738;44.860;10.066;2023-04-03T16:12:04;15.70;99.90
28532;DHT22;15738;44.860;10.066;2023-04-03T16:14:50;15.80;99.90
28532;DHT22;15738;44.860;10.066;2023-04-03T16:17:37;15.50;99.90
28532;DHT22;15738;44.860;10.066;2023-04-03T16:20:23;15.50;99.90
28532;DHT22;15738;44.860;10.066;2023-04-03T16:23:10;15.50;99.90
28532;DHT22;15738;44.860;10.066;2023-04-03T16:25:56;15.40;99.70
28532;DHT22;15738;44.860;10.066;2023-04-03T16:28:42;15.20;99.50
28532;DHT22;15738;44.860;10.066;2023-04-03T16:31:28;15.20;99.70
28532;DHT22;15738;44.860;10.066;2023-04-03T16:34:14;15.30;99.90
28532;DHT22;15738;44.860;10.066;2023-04-03T16:37:00;15.20;99.60
28532;DHT22;15738;44.860;10.066;2023-04-03T16:39:46;15.10;99.20
28532;DHT22;15738;44.860;10.066;2023-04-03T16:42:32;15.10;99.40
28532;DHT22;15738;44.860;10.066;2023-04-03T16:45:20;15.00;99.40
28532;DHT22;15738;44.860;10.066;2023-04-03T16:48:05;15.10;99.60
28532;DHT22;15738;44.860;10.066;2023-04-03T16:50:51;15.10;99.70
28532;DHT22;15738;44.860;10.066;2023-04-03T16:53:38;15.00;99.50
28532;DHT22;15738;44.860;10.066;2023-04-03T16:56:24;14.90;99.10
28532;DHT22;15738;44.860;10.066;2023-04-03T16:59:12;14.80;99.30
28532;DHT22;15738;44.860;10.066;2023-04-03T17:01:58;14.60;99.40
28532;DHT22;15738;44.860;10.066;2023-04-03T17:04:44;14.60;99.40
28532;DHT22;15738;44.860;10.066;2023-04-03T17:07:29;14.50;99.60
28532;DHT22;15738;44.860;10.066;2023-04-03T17:10:15;14.50;99.90
28532;DHT22;15738;44.860;10.066;2023-04-03T17:13:01;14.40;99.90
28532;DHT22;15738;44.860;10.066;2023-04-03T17:15:47;14.40;99.90
28532;DHT22;15738;44.860;10.066;2023-04-03T17:18:32;14.50;99.90
28532;DHT22;15738;44.860;10.066;2023-04-03T17:21:19;14.50;99.90
28532;DHT22;15738;44.860;10.066;2023-04-03T17:24:05;14.40;99.90
28532;DHT22;15738;44.860;10.066;2023-04-03T17:26:54;14.30;99.90
28532;DHT22;15738;44.860;10.066;2023-04-03T17:29:40;14.30;99.90
28532;DHT22;15738;44.860;10.066;2023-04-03T17:32:26;14.10;99.90
28532;DHT22;15738;44.860;10.066;2023-04-03T17:35:12;14.10;99.90
28532;DHT22;15738;44.860;10.066;2023-04-03T17:37:59;14.00;99.90
28532;DHT22;15738;44.860;10.066;2023-04-03T17:40:45;13.90;99.90
28532;DHT22;15738;44.860;10.066;2023-04-03T17:43:30;13.80;99.90
28532;DHT22;15738;44.860;10.066;2023-04-03T17:46:16;13.70;99.90
28532;DHT22;15738;44.860;10.066;2023-04-03T17:49:02;13.60;99.90
28532;DHT22;15738;44.860;10.066;2023-04-03T17:51:48;13.50;99.90
28532;DHT22;15738;44.860;10.066;2023-04-03T17:54:34;13.50;99.90
28532;DHT22;15738;44.860;10.066;2023-04-03T17:57:20;13.50;99.90
28532;DHT22;15738;44.860;10.066;2023-04-03T18:00:06;13.40;99.90
28532;DHT22;15738;44.860;10.066;2023-04-03T18:02:59;13.30;99.90
28532;DHT22;15738;44.860;10.066;2023-04-03T18:05:45;13.20;99.90
28532;DHT22;15738;44.860;10.066;2023-04-03T18:08:35;13.10;99.90
28532;DHT22;15738;44.860;10.066;2023-04-03T18:11:24;13.10;99.90
28532;DHT22;15738;44.860;10.066;2023-04-03T18:14:13;13.00;99.90
28532;DHT22;15738;44.860;10.066;2023-04-03T18:16:59;12.90;99.90
28532;DHT22;15738;44.860;10.066;2023-04-03T18:19:45;12.90;99.90
28532;DHT22;15738;44.860;10.066;2023-04-03T18:22:31;12.90;99.90
28532;DHT22;15738;44.860;10.066;2023-04-03T18:25:17;12.80;99.90
28532;DHT22;15738;44.860;10.066;2023-04-03T18:28:02;12.80;99.90
28532;DHT22;15738;44.860;10.066;2023-04-03T18:30:51;12.80;99.90
28532;DHT22;15738;44.860;10.066;2023-04-03T18:33:36;12.80;99.90
28532;DHT22;15738;44.860;10.066;2023-04-03T18:36:22;12.80;99.90
28532;DHT22;15738;44.860;10.066;2023-04-03T18:39:08;12.80;99.90
28532;DHT22;15738;44.860;10.066;2023-04-03T18:41:54;12.80;99.90
28532;DHT22;15738;44.860;10.066;2023-04-03T18:44:40;12.70;99.90
28532;DHT22;15738;44.860;10.066;2023-04-03T18:47:27;12.70;99.90
28532;DHT22;15738;44.860;10.066;2023-04-03T18:50:13;12.50;99.90
28532;DHT22;15738;44.860;10.066;2023-04-03T18:53:00;12.50;99.90
28532;DHT22;15738;44.860;10.066;2023-04-03T18:55:46;12.40;99.90
28532;DHT22;15738;44.860;10.066;2023-04-03T18:58:32;12.50;99.90
28532;DHT22;15738;44.860;10.066;2023-04-03T19:01:22;12.50;99.90
28532;DHT22;15738;44.860;10.066;2023-04-03T19:04:08;12.40;99.90
28532;DHT22;15738;44.860;10.066;2023-04-03T19:06:59;12.30;99.90
28532;DHT22;15738;44.860;10.066;2023-04-03T19:09:48;12.40;99.90
28532;DHT22;15738;44.860;10.066;2023-04-03T19:12:37;12.30;99.90
28532;DHT22;15738;44.860;10.066;2023-04-03T19:15:22;12.30;99.90
28532;DHT22;15738;44.860;10.066;2023-04-03T19:18:10;12.30;99.90
28532;DHT22;15738;44.860;10.066;2023-04-03T19:20:56;12.20;99.90
28532;DHT22;15738;44.860;10.066;2023-04-03T19:23:43;12.20;99.90
28532;DHT22;15738;44.860;10.066;2023-04-03T19:26:32;12.20;99.90
28532;DHT22;15738;44.860;10.066;2023-04-03T19:29:18;12.20;99.90
28532;DHT22;15738;44.860;10.066;2023-04-03T19:32:04;12.20;99.90
28532;DHT22;15738;44.860;10.066;2023-04-03T19:34:50;12.30;99.90
28532;DHT22;15738;44.860;10.066;2023-04-03T19:37:36;12.30;99.90
28532;DHT22;15738;44.860;10.066;2023-04-03T19:40:21;12.40;99.90
28532;DHT22;15738;44.860;10.066;2023-04-03T19:43:07;12.40;99.90
28532;DHT22;15738;44.860;10.066;2023-04-03T19:45:54;12.40;99.90
28532;DHT22;15738;44.860;10.066;2023-04-03T19:48:44;12.50;99.90